createdAt,value
2023-04-25T00:16:40.027Z,70.43
2023-04-25T00:45:20.465Z,71.48
2023-04-25T01:14:14.296Z,73.85
2023-04-25T01:43:12.568Z,74.2
2023-04-25T02:12:10.831Z,74.62
2023-04-25T02:41:15.920Z,74.64
2023-04-25T03:10:07.855Z,80.01
2023-04-25T03:39:03.703Z,84.43
2023-04-25T04:08:03.579Z,85.41
2023-04-25T04:36:42.944Z,88.36
2023-04-25T05:05:36.458Z,89.68
2023-04-25T05:34:26.545Z,87.23
2023-04-25T06:03:28.202Z,93.3
2023-04-25T06:31:48.898Z,96.12
2023-04-25T07:00:24.008Z,96.72
2023-04-25T07:29:17.085Z,97.42
2023-04-25T07:58:08.958Z,94.33
2023-04-25T08:27:02.474Z,90.73
2023-04-25T08:55:52.774Z,88.3
2023-04-25T09:24:36.886Z,85.61
2023-04-25T09:53:25.371Z,86.93
2023-04-25T10:22:05.697Z,81.89
2023-04-25T10:50:47.079Z,74.86
2023-04-25T11:19:15.895Z,75.42
2023-04-25T11:47:58.438Z,78.18
2023-04-25T12:16:40.981Z,77.5
2023-04-25T12:45:09.578Z,69.5
2023-04-25T13:13:41.723Z,81.2
2023-04-25T13:41:59.659Z,83.87
2023-04-25T14:10:37.204Z,77.83
2023-04-25T14:39:11.801Z,70.79
2023-04-25T15:07:57.881Z,70.37
2023-04-25T15:36:33.402Z,73.06
2023-04-25T16:05:13.850Z,69.5
2023-04-25T16:33:44.516Z,71.75
2023-04-25T17:02:10.471Z,85.29
2023-04-25T17:30:48.970Z,87.32
2023-04-25T17:59:23.973Z,87.21
2023-04-25T18:27:57.042Z,88.67
2023-04-25T18:56:54.396Z,90.44
2023-04-25T19:25:31.232Z,91.01
2023-04-25T19:54:11.857Z,89.81
2023-04-25T20:22:57.106Z,90.93
2023-04-25T20:51:28.581Z,93.83
2023-04-25T21:19:49.083Z,94.56
2023-04-25T21:48:44.700Z,94.29
2023-04-25T22:17:41.446Z,92.73
2023-04-25T22:46:24.084Z,94.06
2023-04-25T23:15:06.452Z,94.04
2023-04-25T23:44:01.292Z,94.93
